createdAt,value
2022-12-11T00:01:24.974Z,2.28
2022-12-11T00:03:52.320Z,2.55
2022-12-11T00:06:22.364Z,2.05
2022-12-11T00:08:53.546Z,2.40
2022-12-11T00:11:22.293Z,2.83
2022-12-11T00:13:49.845Z,3.65
2022-12-11T00:16:17.198Z,2.55
2022-12-11T00:18:45.868Z,1.13
2022-12-11T00:21:14.985Z,3.13
2022-12-11T00:23:42.408Z,3.83
2022-12-11T00:26:14.550Z,4.30
2022-12-11T00:28:42.079Z,4.60
2022-12-11T00:31:13.718Z,2.15
2022-12-11T00:33:42.016Z,4.18
2022-12-11T00:36:14.348Z,3.78
2022-12-11T00:38:42.669Z,3.80
2022-12-11T00:41:10.088Z,4.18
2022-12-11T00:43:37.721Z,2.97
2022-12-11T00:46:05.353Z,2.60
2022-12-11T00:48:33.154Z,3.38
2022-12-11T00:51:00.855Z,3.70
2022-12-11T00:53:29.560Z,2.42
2022-12-11T00:55:56.801Z,3.20
2022-12-11T00:58:24.489Z,2.90
2022-12-11T01:00:52.378Z,3.15
2022-12-11T01:03:19.595Z,3.25
2022-12-11T01:05:53.630Z,3.88
2022-12-11T01:08:21.369Z,3.80
2022-12-11T01:10:50.129Z,3.30
2022-12-11T01:13:17.791Z,3.42
2022-12-11T01:15:45.971Z,2.75
2022-12-11T01:18:15.396Z,2.45
2022-12-11T01:20:43.215Z,2.65
2022-12-11T01:23:13.141Z,3.63
2022-12-11T01:25:41.963Z,2.80
2022-12-11T01:28:11.370Z,3.38
2022-12-11T01:30:41.685Z,2.42
2022-12-11T01:33:09.079Z,3.38
2022-12-11T01:35:36.647Z,3.20
2022-12-11T01:38:03.894Z,2.88
2022-12-11T01:40:31.102Z,3.22
2022-12-11T01:42:58.437Z,3.33
2022-12-11T01:45:44.881Z,4.72
2022-12-11T01:48:16.179Z,3.78
2022-12-11T01:50:47.844Z,3.00
2022-12-11T01:53:21.262Z,4.28
2022-12-11T01:55:51.417Z,2.08
2022-12-11T01:58:20.191Z,0.85
2022-12-11T02:00:49.151Z,3.97
2022-12-11T02:03:16.612Z,4.00
2022-12-11T02:05:44.077Z,5.40
2022-12-11T02:08:12.052Z,3.72
2022-12-11T02:10:52.662Z,2.80
2022-12-11T02:13:28.072Z,1.75
2022-12-11T02:16:05.030Z,4.55
2022-12-11T02:18:36.862Z,2.92
2022-12-11T02:21:11.078Z,2.65
2022-12-11T02:24:03.731Z,3.88
2022-12-11T02:29:16.614Z,1.35
2022-12-11T02:31:48.239Z,2.65
2022-12-11T02:34:21.840Z,2.55
2022-12-11T02:36:52.230Z,3.00
2022-12-11T02:39:22.669Z,3.35
2022-12-11T02:41:51.407Z,3.38
2022-12-11T02:44:24.953Z,3.00
2022-12-11T02:46:53.573Z,3.05
2022-12-11T02:49:23.210Z,2.10
2022-12-11T02:51:52.944Z,3.28
2022-12-11T02:54:25.535Z,2.00
2022-12-11T02:56:59.120Z,2.53
2022-12-11T02:59:46.813Z,3.40
2022-12-11T03:02:17.286Z,3.13
2022-12-11T03:04:46.046Z,1.92
2022-12-11T03:07:18.064Z,3.65
2022-12-11T03:09:47.289Z,4.57
2022-12-11T03:12:17.830Z,3.47
2022-12-11T03:14:46.783Z,3.33
2022-12-11T03:17:17.025Z,2.25
2022-12-11T03:19:51.303Z,2.65
2022-12-11T03:22:22.248Z,2.88
2022-12-11T03:24:53.369Z,4.10
2022-12-11T03:27:32.728Z,2.67
2022-12-11T03:30:08.045Z,3.25
2022-12-11T03:32:40.810Z,2.90
2022-12-11T03:35:14.603Z,3.30
2022-12-11T03:37:43.599Z,2.55
2022-12-11T03:40:13.678Z,4.03
2022-12-11T03:42:44.513Z,4.05
2022-12-11T03:45:14.435Z,3.22
2022-12-11T03:47:43.452Z,3.38
2022-12-11T03:50:14.626Z,3.60
2022-12-11T03:52:46.131Z,3.03
2022-12-11T03:55:17.150Z,4.10
2022-12-11T03:57:45.013Z,3.92
2022-12-11T04:00:16.569Z,3.08
2022-12-11T04:02:44.810Z,2.45
2022-12-11T04:05:12.716Z,4.15
2022-12-11T04:07:40.207Z,4.13
2022-12-11T04:10:08.046Z,4.20
2022-12-11T04:12:35.234Z,3.72
2022-12-11T04:15:02.844Z,4.18
2022-12-11T04:18:15.580Z,3.80
2022-12-11T04:21:00.996Z,3.80
2022-12-11T04:23:46.689Z,3.22
2022-12-11T04:26:16.656Z,4.80
2022-12-11T04:28:45.138Z,2.13
2022-12-11T04:31:13.135Z,3.15
2022-12-11T04:33:42.123Z,4.20
2022-12-11T04:36:10.760Z,3.85
2022-12-11T04:38:38.142Z,3.80
2022-12-11T04:41:07.605Z,4.65
2022-12-11T04:43:35.191Z,4.45
2022-12-11T04:46:03.433Z,6.45
2022-12-11T04:48:30.664Z,4.22
2022-12-11T04:51:02.493Z,5.45
2022-12-11T04:53:30.139Z,1.45
2022-12-11T04:55:57.380Z,4.43
2022-12-11T04:58:25.796Z,1.77
2022-12-11T05:00:53.731Z,4.80
2022-12-11T05:03:21.119Z,3.55
2022-12-11T05:05:49.498Z,3.85
2022-12-11T05:08:19.216Z,3.30
2022-12-11T05:10:55.540Z,3.72
2022-12-11T05:13:22.849Z,2.38
2022-12-11T05:15:50.307Z,3.35
2022-12-11T05:18:17.677Z,4.97
2022-12-11T05:20:45.198Z,3.42
2022-12-11T05:23:12.407Z,3.55
2022-12-11T05:25:41.048Z,5.30
2022-12-11T05:28:08.590Z,2.83
2022-12-11T05:30:35.809Z,5.63
2022-12-11T05:33:02.999Z,3.28
2022-12-11T05:35:30.287Z,4.72
2022-12-11T05:37:58.399Z,2.15
2022-12-11T05:40:25.719Z,3.50
2022-12-11T05:42:55.767Z,2.58
2022-12-11T05:45:22.975Z,2.58
2022-12-11T05:47:50.318Z,3.80
2022-12-11T05:50:17.870Z,3.58
2022-12-11T05:52:45.139Z,2.55
2022-12-11T05:55:12.625Z,3.75
2022-12-11T05:57:39.978Z,3.70
2022-12-11T06:00:10.476Z,2.97
2022-12-11T06:02:37.851Z,3.97
2022-12-11T06:05:05.843Z,2.83
2022-12-11T06:07:33.125Z,3.60
2022-12-11T06:10:00.376Z,3.72
2022-12-11T06:12:28.483Z,3.45
2022-12-11T06:14:56.199Z,2.72
2022-12-11T06:17:24.821Z,3.00
2022-12-11T06:19:52.086Z,3.75
2022-12-11T06:22:19.537Z,2.72
2022-12-11T06:24:46.769Z,1.42
2022-12-11T06:27:14.139Z,2.42
2022-12-11T06:29:41.573Z,1.70
2022-12-11T06:32:08.866Z,1.83
2022-12-11T06:34:37.642Z,3.55
2022-12-11T06:37:04.907Z,4.00
2022-12-11T06:39:32.447Z,2.55
2022-12-11T06:41:59.647Z,4.18
2022-12-11T06:44:27.235Z,3.47
2022-12-11T06:46:54.559Z,2.97
2022-12-11T06:49:22.011Z,3.22
2022-12-11T06:51:50.732Z,3.72
2022-12-11T06:54:17.918Z,5.60
2022-12-11T06:56:45.161Z,1.85
2022-12-11T06:59:12.914Z,2.25
2022-12-11T07:01:41.098Z,4.82
2022-12-11T07:04:09.694Z,3.45
2022-12-11T07:06:36.974Z,3.80
2022-12-11T07:09:06.686Z,2.47
2022-12-11T07:11:33.958Z,1.55
2022-12-11T07:14:01.356Z,3.38
2022-12-11T07:16:28.647Z,2.75
2022-12-11T07:18:56.222Z,3.38
2022-12-11T07:21:23.503Z,2.72
2022-12-11T07:23:50.890Z,3.20
2022-12-11T07:26:21.761Z,4.60
2022-12-11T07:28:49.969Z,3.05
2022-12-11T07:31:19.564Z,2.92
2022-12-11T07:33:47.372Z,3.50
2022-12-11T07:36:16.402Z,3.00
2022-12-11T07:38:43.660Z,3.13
2022-12-11T07:41:13.817Z,2.78
2022-12-11T07:43:43.040Z,3.22
2022-12-11T07:46:13.302Z,4.07
2022-12-11T07:48:42.368Z,3.65
2022-12-11T07:51:11.157Z,2.97
2022-12-11T07:53:39.358Z,2.30
2022-12-11T07:56:07.650Z,2.25
2022-12-11T07:58:35.083Z,3.67
2022-12-11T08:01:03.821Z,2.70
2022-12-11T08:03:31.165Z,5.53
2022-12-11T08:05:58.438Z,3.33
2022-12-11T08:08:25.678Z,3.55
2022-12-11T08:10:53.036Z,3.83
2022-12-11T08:13:20.426Z,4.50
2022-12-11T08:15:49.118Z,2.95
2022-12-11T08:18:17.823Z,4.47
2022-12-11T08:20:45.134Z,4.60
2022-12-11T08:23:12.475Z,4.32
2022-12-11T08:25:39.867Z,4.93
2022-12-11T08:28:07.149Z,4.15
2022-12-11T08:30:34.790Z,2.88
2022-12-11T08:33:02.117Z,5.18
2022-12-11T08:35:30.714Z,4.50
2022-12-11T08:37:58.066Z,4.22
2022-12-11T08:40:25.373Z,5.25
2022-12-11T08:42:52.675Z,3.03
2022-12-11T08:45:20.232Z,3.55
2022-12-11T08:47:47.456Z,3.53
2022-12-11T08:50:14.699Z,4.53
2022-12-11T08:52:43.404Z,5.32
2022-12-11T08:55:11.152Z,5.32
2022-12-11T08:57:40.186Z,3.35
2022-12-11T09:00:10.142Z,3.20
2022-12-11T09:02:37.644Z,4.22
2022-12-11T09:05:08.250Z,4.28
2022-12-11T09:07:36.831Z,4.80
2022-12-11T09:10:07.348Z,4.78
2022-12-11T09:12:35.510Z,4.32
2022-12-11T09:15:03.058Z,4.75
2022-12-11T09:17:31.384Z,4.93
2022-12-11T09:19:58.580Z,4.85
2022-12-11T09:22:26.048Z,7.50
2022-12-11T09:24:53.352Z,3.95
2022-12-11T09:27:32.171Z,5.18
2022-12-11T09:29:59.431Z,2.17
2022-12-11T09:32:26.734Z,6.53
2022-12-11T09:34:54.120Z,4.22
2022-12-11T09:37:21.565Z,6.60
2022-12-11T09:39:48.974Z,5.05
2022-12-11T09:42:21.464Z,3.72
2022-12-11T09:44:53.130Z,4.95
2022-12-11T09:47:25.229Z,5.55
2022-12-11T09:50:03.170Z,6.78
2022-12-11T09:52:35.096Z,6.05
2022-12-11T09:55:10.465Z,7.13
2022-12-11T09:57:48.991Z,4.88
2022-12-11T10:00:26.653Z,3.63
2022-12-11T10:03:23.764Z,3.38
2022-12-11T10:06:02.655Z,5.18
2022-12-11T10:08:42.155Z,5.53
2022-12-11T10:11:33.420Z,5.82
2022-12-11T10:14:08.995Z,6.35
2022-12-11T10:16:41.376Z,4.50
2022-12-11T10:19:17.422Z,6.22
2022-12-11T10:21:45.747Z,2.65
2022-12-11T10:24:48.933Z,6.95
2022-12-11T10:27:16.877Z,6.90
2022-12-11T10:29:44.245Z,7.05
2022-12-11T10:32:22.133Z,6.75
2022-12-11T10:34:54.720Z,7.40
2022-12-11T10:37:22.064Z,5.80
2022-12-11T10:39:49.365Z,4.95
2022-12-11T10:42:19.776Z,6.78
2022-12-11T10:44:58.557Z,6.40
2022-12-11T10:47:28.162Z,6.07
2022-12-11T10:49:58.391Z,6.25
2022-12-11T10:52:28.331Z,3.53
2022-12-11T10:54:59.507Z,5.88
2022-12-11T10:57:32.338Z,7.00
2022-12-11T11:02:36.035Z,6.97
2022-12-11T11:05:13.566Z,6.68
2022-12-11T11:07:41.314Z,6.50
2022-12-11T11:10:16.607Z,7.82
2022-12-11T11:12:46.542Z,6.18
2022-12-11T11:15:15.737Z,7.10
2022-12-11T11:17:54.480Z,7.65
2022-12-11T11:22:54.396Z,4.32
2022-12-11T11:25:23.746Z,3.83
2022-12-11T11:27:54.154Z,5.68
2022-12-11T11:30:23.816Z,4.57
2022-12-11T11:32:55.556Z,2.55
2022-12-11T11:35:25.782Z,6.25
2022-12-11T11:38:04.722Z,5.72
2022-12-11T11:40:40.436Z,5.10
2022-12-11T11:43:16.470Z,2.88
2022-12-11T11:45:51.744Z,4.70
2022-12-11T11:48:36.695Z,4.55
2022-12-11T11:51:15.947Z,3.08
2022-12-11T11:53:48.611Z,5.07
2022-12-11T11:56:24.145Z,5.35
2022-12-11T11:59:02.547Z,4.25
2022-12-11T12:01:30.562Z,4.95
2022-12-11T12:04:01.651Z,5.28
2022-12-11T12:06:52.313Z,3.10
2022-12-11T12:09:33.866Z,4.50
2022-12-11T12:12:11.271Z,3.28
2022-12-11T12:14:54.277Z,3.55
2022-12-11T12:17:31.713Z,2.55
2022-12-11T12:20:10.764Z,1.23
2022-12-11T12:22:54.270Z,2.28
2022-12-11T12:25:29.600Z,3.83
2022-12-11T12:28:04.880Z,2.55
2022-12-11T12:30:45.520Z,3.17
2022-12-11T12:33:24.976Z,1.52
2022-12-11T12:38:38.227Z,2.30
2022-12-11T12:41:15.817Z,1.35
2022-12-11T12:44:03.198Z,3.47
2022-12-11T12:46:49.298Z,3.47
2022-12-11T12:49:23.223Z,3.17
2022-12-11T12:51:53.137Z,1.85
2022-12-11T12:54:22.052Z,3.67
2022-12-11T12:56:49.949Z,3.35
2022-12-11T12:59:22.147Z,2.05
2022-12-11T13:01:55.289Z,1.42
2022-12-11T13:04:59.664Z,1.42
2022-12-11T13:07:31.052Z,3.92
2022-12-11T13:10:05.370Z,0.75
2022-12-11T13:12:41.034Z,1.55
2022-12-11T13:15:27.290Z,3.13
2022-12-11T13:17:55.642Z,2.08
2022-12-11T13:20:26.073Z,1.70
2022-12-11T13:23:17.437Z,2.85
2022-12-11T13:25:52.077Z,1.75
2022-12-11T13:28:31.787Z,3.33
2022-12-11T13:31:18.921Z,2.28
2022-12-11T13:33:48.831Z,1.15
2022-12-11T13:36:28.079Z,3.03
2022-12-11T13:39:00.765Z,2.63
2022-12-11T13:41:28.971Z,2.90
2022-12-11T13:43:58.093Z,1.10
2022-12-11T13:46:27.875Z,1.48
2022-12-11T13:49:01.087Z,2.75
2022-12-11T13:51:30.964Z,1.85
2022-12-11T13:54:17.072Z,3.15
2022-12-11T13:56:55.773Z,3.75
2022-12-11T13:59:27.251Z,1.33
2022-12-11T14:01:58.148Z,1.70
2022-12-11T14:04:28.265Z,2.05
2022-12-11T14:06:57.409Z,2.50
2022-12-11T14:09:28.131Z,2.13
2022-12-11T14:11:57.496Z,2.15
2022-12-11T14:14:31.167Z,3.15
2022-12-11T14:16:58.628Z,1.80
2022-12-11T14:19:26.089Z,2.75
2022-12-11T14:21:59.392Z,1.63
2022-12-11T14:24:29.015Z,1.83
2022-12-11T14:26:56.933Z,1.23
2022-12-11T14:29:26.393Z,2.42
2022-12-11T14:31:54.408Z,2.08
2022-12-11T14:34:26.507Z,3.35
2022-12-11T14:36:55.081Z,1.10
2022-12-11T14:39:27.920Z,2.22
2022-12-11T14:42:03.832Z,4.03
2022-12-11T14:44:37.078Z,1.40
2022-12-11T14:47:11.402Z,1.58
2022-12-11T14:49:45.844Z,2.35
2022-12-11T14:52:17.837Z,1.00
2022-12-11T14:54:51.287Z,3.28
2022-12-11T14:57:23.550Z,2.80
2022-12-11T14:59:53.154Z,2.45
2022-12-11T15:02:25.528Z,2.20
2022-12-11T15:05:05.394Z,2.90
2022-12-11T15:07:33.181Z,0.70
2022-12-11T15:10:00.444Z,1.70
2022-12-11T15:12:29.100Z,1.33
2022-12-11T15:15:00.926Z,0.85
2022-12-11T15:17:31.527Z,0.63
2022-12-11T15:20:05.945Z,1.23
2022-12-11T15:22:33.677Z,0.40
2022-12-11T15:25:01.617Z,0.77
2022-12-11T15:27:37.660Z,2.38
2022-12-11T15:30:26.956Z,0.50
2022-12-11T15:33:03.782Z,1.08
2022-12-11T15:35:31.162Z,2.20
2022-12-11T15:37:58.916Z,3.13
2022-12-11T15:40:27.325Z,2.75
2022-12-11T15:42:57.132Z,0.73
2022-12-11T15:45:26.189Z,1.25
2022-12-11T15:47:53.515Z,0.85
2022-12-11T15:50:22.646Z,0.65
2022-12-11T15:52:51.792Z,1.42
2022-12-11T15:55:20.062Z,1.88
2022-12-11T15:57:50.551Z,1.92
2022-12-11T16:00:24.226Z,0.73
2022-12-11T16:02:52.201Z,3.03
2022-12-11T16:05:19.889Z,0.77
2022-12-11T16:07:47.550Z,1.45
2022-12-11T16:10:17.755Z,0.68
2022-12-11T16:12:45.486Z,1.75
2022-12-11T16:15:21.451Z,0.77
2022-12-11T16:18:00.516Z,1.27
2022-12-11T16:20:27.820Z,0.88
2022-12-11T16:22:55.065Z,0.17
2022-12-11T16:25:22.343Z,0.30
2022-12-11T16:27:50.735Z,1.13
2022-12-11T16:30:18.114Z,1.25
2022-12-11T16:32:45.547Z,1.35
2022-12-11T16:35:14.425Z,0.98
2022-12-11T16:37:42.085Z,1.48
2022-12-11T16:40:10.991Z,0.40
2022-12-11T16:42:38.497Z,1.13
2022-12-11T16:45:09.241Z,1.30
2022-12-11T16:47:36.937Z,0.82
2022-12-11T16:50:05.593Z,0.77
2022-12-11T16:52:34.587Z,0.80
2022-12-11T16:55:01.982Z,0.57
2022-12-11T16:57:31.009Z,1.30
2022-12-11T16:59:58.383Z,0.17
2022-12-11T17:02:25.820Z,0.45
2022-12-11T17:04:54.149Z,0.93
2022-12-11T17:07:21.656Z,1.00
2022-12-11T17:09:50.696Z,0.95
2022-12-11T17:12:18.015Z,0.43
2022-12-11T17:14:45.699Z,0.98
2022-12-11T17:17:12.907Z,0.43
2022-12-11T17:19:40.406Z,0.55
2022-12-11T17:22:07.577Z,1.33
2022-12-11T17:24:34.783Z,0.80
2022-12-11T17:27:03.447Z,0.50
2022-12-11T17:29:31.538Z,0.70
2022-12-11T17:31:58.977Z,0.93
2022-12-11T17:34:26.327Z,0.10
2022-12-11T17:36:53.725Z,1.10
2022-12-11T17:39:20.964Z,0.50
2022-12-11T17:41:48.331Z,0.43
2022-12-11T17:44:17.057Z,1.10
2022-12-11T17:46:44.405Z,0.40
2022-12-11T17:49:11.788Z,1.50
2022-12-11T17:51:39.116Z,1.90
2022-12-11T17:54:06.469Z,0.95
2022-12-11T17:56:36.286Z,1.80
2022-12-11T17:59:04.244Z,0.40
2022-12-11T18:01:33.421Z,0.38
2022-12-11T18:04:01.986Z,1.45
2022-12-11T18:06:30.096Z,0.32
2022-12-11T18:08:57.811Z,1.05
2022-12-11T18:11:25.500Z,0.60
2022-12-11T18:13:53.886Z,0.93
2022-12-11T18:16:24.643Z,0.20
2022-12-11T18:18:56.704Z,1.15
2022-12-11T18:21:25.613Z,0.50
2022-12-11T18:23:52.999Z,0.17
2022-12-11T18:26:21.091Z,1.85
2022-12-11T18:28:49.330Z,0.43
2022-12-11T18:31:17.734Z,1.05
2022-12-11T18:33:46.142Z,1.38
2022-12-11T18:36:19.666Z,0.60
2022-12-11T18:38:53.472Z,0.43
2022-12-11T18:41:23.503Z,0.30
2022-12-11T18:43:54.920Z,0.45
2022-12-11T18:46:24.765Z,1.38
2022-12-11T18:48:58.394Z,0.60
2022-12-11T18:51:30.425Z,0.20
2022-12-11T18:53:59.964Z,2.03
2022-12-11T18:56:29.573Z,0.45
2022-12-11T18:59:00.139Z,0.57
2022-12-11T19:01:29.439Z,0.55
2022-12-11T19:04:03.535Z,1.10
2022-12-11T19:06:35.626Z,0.17
2022-12-11T19:09:05.204Z,1.25
2022-12-11T19:11:35.075Z,0.95
2022-12-11T19:14:05.472Z,2.13
2022-12-11T19:16:37.520Z,1.35
2022-12-11T19:19:07.223Z,1.50
2022-12-11T19:21:40.048Z,1.10
2022-12-11T19:26:35.369Z,0.70
2022-12-11T19:29:02.660Z,0.32
2022-12-11T19:31:32.060Z,0.28
2022-12-11T19:34:00.082Z,0.52
2022-12-11T19:36:29.243Z,0.40
2022-12-11T19:39:02.095Z,0.60
2022-12-11T19:41:30.648Z,0.40
2022-12-11T19:44:09.655Z,1.73
2022-12-11T19:46:37.249Z,2.70
2022-12-11T19:49:05.077Z,0.35
2022-12-11T19:51:39.624Z,1.63
2022-12-11T19:54:12.287Z,1.38
2022-12-11T19:56:42.335Z,1.88
2022-12-11T19:59:16.611Z,0.40
2022-12-11T20:01:46.835Z,3.22
2022-12-11T20:04:19.239Z,1.98
2022-12-11T20:06:47.437Z,1.80
2022-12-11T20:09:16.964Z,1.00
2022-12-11T20:11:47.659Z,1.10
2022-12-11T20:14:21.568Z,1.85
2022-12-11T20:19:40.061Z,1.63
2022-12-11T20:22:07.718Z,3.15
2022-12-11T20:24:38.114Z,0.35
2022-12-11T20:27:05.777Z,0.98
2022-12-11T20:29:34.888Z,2.00
2022-12-11T20:32:02.210Z,4.97
2022-12-11T20:34:29.631Z,2.17
2022-12-11T20:36:56.975Z,1.92
2022-12-11T20:39:24.521Z,1.92
2022-12-11T20:41:57.607Z,2.42
2022-12-11T20:44:24.859Z,4.03
2022-12-11T20:46:52.270Z,3.80
2022-12-11T20:49:21.088Z,2.10
2022-12-11T20:51:50.354Z,3.03
2022-12-11T20:54:17.615Z,3.25
2022-12-11T20:56:46.257Z,6.10
2022-12-11T20:59:18.509Z,5.95
2022-12-11T21:01:46.177Z,2.88
2022-12-11T21:04:13.547Z,2.35
2022-12-11T21:06:42.236Z,5.50
2022-12-11T21:09:12.879Z,3.28
2022-12-11T21:11:40.268Z,5.28
2022-12-11T21:14:07.742Z,7.20
2022-12-11T21:16:52.571Z,2.25
2022-12-11T21:19:22.683Z,3.33
2022-12-11T21:21:50.938Z,8.30
2022-12-11T21:24:38.419Z,3.80
2022-12-11T21:27:23.140Z,4.43
2022-12-11T21:29:51.054Z,5.40
2022-12-11T21:32:30.061Z,3.70
2022-12-11T21:35:01.154Z,2.42
2022-12-11T21:37:41.997Z,8.65
2022-12-11T21:40:10.486Z,3.22
2022-12-11T21:42:37.735Z,10.27
2022-12-11T21:47:55.104Z,5.50
2022-12-11T21:50:22.577Z,9.30
2022-12-11T21:52:50.381Z,2.45
2022-12-11T21:55:18.314Z,5.28
2022-12-11T21:57:45.586Z,4.63
2022-12-11T22:00:13.772Z,7.63
2022-12-11T22:02:41.464Z,4.38
2022-12-11T22:05:10.672Z,3.00
2022-12-11T22:07:39.022Z,8.80
2022-12-11T22:10:07.074Z,4.38
2022-12-11T22:12:34.401Z,9.98
2022-12-11T22:15:01.706Z,6.05
2022-12-11T22:17:31.766Z,3.95
2022-12-11T22:19:59.316Z,8.00
2022-12-11T22:22:27.898Z,7.38
2022-12-11T22:24:55.097Z,4.22
2022-12-11T22:27:24.026Z,12.13
2022-12-11T22:29:51.601Z,5.18
2022-12-11T22:32:18.998Z,11.07
2022-12-11T22:34:46.190Z,7.53
2022-12-11T22:37:13.337Z,3.78
2022-12-11T22:39:42.129Z,6.63
2022-12-11T22:42:09.403Z,10.93
2022-12-11T22:44:36.773Z,4.45
2022-12-11T22:47:04.156Z,7.35
2022-12-11T22:49:32.834Z,7.45
2022-12-11T22:52:00.033Z,4.90
2022-12-11T22:54:27.306Z,8.98
2022-12-11T22:56:55.933Z,8.13
2022-12-11T22:59:23.488Z,13.32
2022-12-11T23:01:50.871Z,8.35
2022-12-11T23:04:18.359Z,8.95
2022-12-11T23:06:45.577Z,11.77
2022-12-11T23:09:12.918Z,5.30
2022-12-11T23:11:41.057Z,4.40
2022-12-11T23:14:17.773Z,13.60
2022-12-11T23:16:45.125Z,5.30
2022-12-11T23:19:13.165Z,6.90
2022-12-11T23:21:40.744Z,4.70
2022-12-11T23:24:08.750Z,5.28
2022-12-11T23:26:36.844Z,9.02
2022-12-11T23:29:05.703Z,8.60
2022-12-11T23:31:34.586Z,14.07
2022-12-11T23:34:01.895Z,10.82
2022-12-11T23:36:29.853Z,8.98
2022-12-11T23:38:57.191Z,8.90
2022-12-11T23:41:25.392Z,8.27
2022-12-11T23:43:52.852Z,11.73
2022-12-11T23:46:22.002Z,16.20
2022-12-11T23:48:51.420Z,10.95
2022-12-11T23:51:23.107Z,10.88
2022-12-11T23:53:53.433Z,13.10
2022-12-11T23:56:23.524Z,5.45
2022-12-11T23:58:50.919Z,9.98
